Time;durP1;ratioP1;P1;durP2;ratioP2;P2;SDS_P1;SDS_P2;PMS_P1;PMS_P2;Temp;Humidity;BMP_temperature;BMP_pressure;BME280_temperature;BME280_humidity;BME280_pressure;Samples;Min_cycle;Max_cycle;Signal;HPM_P1;HPM_P2
2023/11/18 00:02:19;;;;;;;7.30;4.47;;;;;;;19.26;42.62;102284.50;5019212;28;20285;-68
2023/11/18 00:04:44;;;;;;;6.82;4.57;;;;;;;19.25;42.54;102282.81;5018807;28;20271;-68
2023/11/18 00:07:09;;;;;;;7.47;4.97;;;;;;;19.24;42.62;102281.97;5018798;28;20022;-66
2023/11/18 00:09:35;;;;;;;6.68;4.90;;;;;;;19.22;42.62;102283.88;5018522;28;20613;-68
2023/11/18 00:12:01;;;;;;;9.00;4.80;;;;;;;19.21;42.92;102287.44;5020525;28;20375;-67
2023/11/18 00:14:26;;;;;;;7.45;4.60;;;;;;;19.17;42.75;102284.16;5029977;28;20125;-67
2023/11/18 00:16:51;;;;;;;5.72;4.13;;;;;;;19.17;42.33;102289.44;5024408;28;20029;-68
2023/11/18 00:19:17;;;;;;;6.50;4.50;;;;;;;19.16;42.42;102290.38;5020799;28;20052;-67
2023/11/18 00:21:42;;;;;;;6.78;4.90;;;;;;;19.15;42.44;102271.97;5027267;28;20116;-67
2023/11/18 00:24:08;;;;;;;9.32;4.95;;;;;;;19.15;42.43;102280.78;5024054;28;20030;-67
2023/11/18 00:26:33;;;;;;;8.52;4.45;;;;;;;19.14;42.52;102280.88;5026035;28;20029;-68
2023/11/18 00:29:00;;;;;;;7.57;4.70;;;;;;;19.13;42.56;102274.72;5022169;28;20079;-67
2023/11/18 00:31:25;;;;;;;9.23;4.72;;;;;;;19.10;42.55;102271.41;5011445;28;20018;-68
2023/11/18 00:33:51;;;;;;;7.03;5.00;;;;;;;19.09;42.65;102269.72;5011421;28;20036;-67
2023/11/18 00:36:16;;;;;;;6.57;4.80;;;;;;;19.08;42.45;102270.69;5012483;28;20025;-69
2023/11/18 00:38:41;;;;;;;8.02;4.65;;;;;;;19.07;42.58;102275.09;5013349;28;20071;-68
2023/11/18 00:41:07;;;;;;;7.18;4.80;;;;;;;19.07;42.41;102280.38;5026726;28;20036;-68
2023/11/18 00:43:32;;;;;;;7.45;4.50;;;;;;;19.06;42.39;102278.69;5019284;28;20042;-68
2023/11/18 00:45:59;;;;;;;7.07;4.43;;;;;;;19.05;42.22;102271.72;5018204;28;20510;-69
2023/11/18 00:48:24;;;;;;;6.57;4.60;;;;;;;19.05;42.33;102260.31;5018904;28;20038;-67
2023/11/18 00:50:50;;;;;;;6.90;4.47;;;;;;;19.01;42.38;102268.41;5019526;28;20033;-68
2023/11/18 00:53:15;;;;;;;7.13;4.80;;;;;;;19.01;42.21;102267.56;5019498;28;20041;-68
2023/11/18 00:55:41;;;;;;;6.55;4.88;;;;;;;19.02;42.10;102271.91;5029069;28;20267;-68
2023/11/18 00:58:06;;;;;;;6.45;4.43;;;;;;;19.00;42.12;102274.63;5017569;28;20474;-68
2023/11/18 01:00:31;;;;;;;7.10;4.78;;;;;;;18.97;42.07;102266.06;5016697;28;20022;-67
2023/11/18 01:02:57;;;;;;;6.68;4.45;;;;;;;18.99;42.04;102274.72;5019231;28;20022;-68
2023/11/18 01:05:22;;;;;;;7.95;4.88;;;;;;;18.96;42.20;102278.44;5018133;28;20029;-67
2023/11/18 01:07:48;;;;;;;7.10;4.47;;;;;;;18.97;42.07;102284.56;5018141;28;20026;-68
2023/11/18 01:10:13;;;;;;;6.47;4.60;;;;;;;18.94;42.05;102280.28;5019233;28;20029;-68
2023/11/18 01:12:39;;;;;;;7.55;4.40;;;;;;;18.94;42.21;102282.94;5010923;28;20030;-67
2023/11/18 01:15:06;;;;;;;7.28;4.72;;;;;;;18.93;42.17;102286.53;5008657;28;20057;-68
2023/11/18 01:17:32;;;;;;;7.65;4.63;;;;;;;18.92;41.96;102286.63;5008602;28;20034;-67
2023/11/18 01:19:58;;;;;;;8.18;4.70;;;;;;;18.90;42.16;102283.22;5012159;28;21534;-69
2023/11/18 01:22:24;;;;;;;9.00;5.25;;;;;;;18.90;41.90;102281.44;5007821;28;20037;-67
2023/11/18 01:24:51;;;;;;;6.70;4.38;;;;;;;18.89;41.80;102285.03;5008408;28;20057;-66
2023/11/18 01:27:17;;;;;;;6.97;4.47;;;;;;;18.90;41.93;102291.16;5007454;28;20057;-68
2023/11/18 01:29:43;;;;;;;6.80;4.63;;;;;;;18.89;42.06;102292.09;5007182;28;20057;-69
2023/11/18 01:32:09;;;;;;;7.20;4.85;;;;;;;18.88;42.08;102293.03;5007345;28;20038;-67
2023/11/18 01:34:36;;;;;;;6.07;4.40;;;;;;;18.87;42.19;102286.06;5006386;28;20052;-67
2023/11/18 01:37:01;;;;;;;7.57;4.50;;;;;;;18.85;41.93;102289.66;5007833;28;20022;-67
2023/11/18 01:39:27;;;;;;;6.43;4.20;;;;;;;18.85;41.87;102294.94;5008081;28;20049;-68
2023/11/18 01:41:52;;;;;;;7.00;5.38;;;;;;;18.84;42.23;102295.88;5006969;28;20029;-68
2023/11/18 01:44:19;;;;;;;6.82;4.60;;;;;;;18.85;42.03;102288.81;5007129;28;20034;-70
2023/11/18 01:46:45;;;;;;;6.78;4.53;;;;;;;18.83;42.10;102280.94;5007109;28;20041;-68
2023/11/18 01:49:13;;;;;;;6.82;4.53;;;;;;;18.82;42.11;102286.31;5006358;28;20038;-67
2023/11/18 01:51:41;;;;;;;6.60;4.47;;;;;;;18.81;42.05;102284.63;5007439;28;20033;-68
2023/11/18 01:54:08;;;;;;;7.07;4.70;;;;;;;18.81;42.03;102289.91;5006998;28;20022;-67
2023/11/18 01:56:33;;;;;;;8.38;5.30;;;;;;;18.78;41.89;102288.28;5007361;28;20083;-67
2023/11/18 01:58:58;;;;;;;6.38;4.40;;;;;;;18.78;42.00;102295.38;5007183;28;20037;-69
2023/11/18 02:01:27;;;;;;;6.47;4.10;;;;;;;18.79;42.18;102294.44;5007839;28;20084;-68
2023/11/18 02:03:53;;;;;;;7.68;4.72;;;;;;;18.78;41.93;102293.56;5007001;28;20021;-68
2023/11/18 02:06:18;;;;;;;6.68;4.30;;;;;;;18.77;42.19;102283.97;5006874;28;20096;-67
2023/11/18 02:08:43;;;;;;;6.57;4.97;;;;;;;18.77;42.10;102275.19;5006384;28;20041;-69
2023/11/18 02:11:24;;;;;;;6.63;4.57;;;;;;;18.74;42.26;102276.22;5007124;28;20993;-68
2023/11/18 02:13:53;;;;;;;6.55;4.43;;;;;;;18.76;42.03;102287.53;5006541;28;20382;-68
2023/11/18 02:16:20;;;;;;;8.05;4.88;;;;;;;18.75;42.12;102279.72;5006826;28;20113;-69
2023/11/18 02:18:47;;;;;;;7.88;4.60;;;;;;;18.75;41.96;102277.06;5006183;28;20038;-68
2023/11/18 02:21:14;;;;;;;6.43;4.28;;;;;;;18.75;42.22;102279.72;5006860;28;20029;-68
2023/11/18 02:23:40;;;;;;;7.00;4.50;;;;;;;18.74;42.13;102292.06;5006418;28;20037;-69
2023/11/18 02:26:06;;;;;;;6.28;4.50;;;;;;;18.75;42.11;102299.03;5007063;28;20066;-69
2023/11/18 02:28:31;;;;;;;7.55;4.85;;;;;;;18.74;42.39;102296.50;5005598;28;20077;-67
2023/11/18 02:31:09;;;;;;;6.75;4.57;;;;;;;18.73;42.30;102300.94;5020245;28;20088;-68
2023/11/18 02:33:40;;;;;;;7.28;4.65;;;;;;;18.72;42.09;102306.31;5006741;28;20033;-67
2023/11/18 02:36:26;;;;;;;7.07;4.53;;;;;;;18.72;42.17;102306.31;5006508;28;20040;-67
2023/11/18 02:38:54;;;;;;;6.15;4.65;;;;;;;18.74;42.14;102291.22;5019860;28;20034;-68
2023/11/18 02:41:21;;;;;;;7.15;4.13;;;;;;;18.73;42.23;102285.09;5006452;28;20037;-67
2023/11/18 02:43:47;;;;;;;7.47;4.10;;;;;;;18.71;41.94;102268.50;5006438;28;20056;-68
2023/11/18 02:46:13;;;;;;;7.95;4.30;;;;;;;18.70;41.99;102268.59;5006224;28;20034;-67
2023/11/18 02:48:39;;;;;;;7.55;4.47;;;;;;;18.70;42.17;102284.44;5006510;28;20756;-69
2023/11/18 02:51:04;;;;;;;6.53;4.55;;;;;;;18.68;42.19;102277.44;5006581;28;20028;-68
2023/11/18 02:53:30;;;;;;;6.35;4.30;;;;;;;18.68;41.97;102266.03;5006250;28;20623;-68
2023/11/18 02:56:02;;;;;;;7.25;4.43;;;;;;;18.68;42.10;102263.41;5005847;28;20076;-68
2023/11/18 02:58:27;;;;;;;7.57;4.85;;;;;;;18.68;42.03;102261.59;5005559;28;20519;-66
2023/11/18 03:00:53;;;;;;;5.70;4.07;;;;;;;18.67;41.99;102248.47;5008004;28;20124;-68
2023/11/18 03:03:20;;;;;;;7.72;4.65;;;;;;;18.67;42.16;102253.75;5009668;28;20050;-69
2023/11/18 03:05:45;;;;;;;7.68;4.72;;;;;;;18.66;41.82;102241.53;5009976;28;20028;-66
2023/11/18 03:08:11;;;;;;;6.55;4.68;;;;;;;18.64;41.85;102244.25;5010169;28;20437;-68
2023/11/18 03:10:37;;;;;;;7.55;4.80;;;;;;;18.65;41.85;102242.47;5009927;28;20025;-66
2023/11/18 03:13:02;;;;;;;6.70;4.68;;;;;;;18.64;41.91;102240.75;5009594;28;21586;-66
2023/11/18 03:15:28;;;;;;;5.45;4.10;;;;;;;18.63;42.03;102237.28;5010125;28;20030;-66
2023/11/18 03:17:54;;;;;;;7.68;4.88;;;;;;;18.63;41.86;102233.78;5009756;28;20044;-67
2023/11/18 03:20:22;;;;;;;5.93;4.03;;;;;;;18.62;42.07;102235.56;5010293;28;20366;-67
2023/11/18 03:22:48;;;;;;;6.65;4.10;;;;;;;18.63;41.80;102239.06;5009456;28;20034;-67
2023/11/18 03:25:16;;;;;;;6.32;4.40;;;;;;;18.62;41.85;102253.22;5009937;28;20018;-66
2023/11/18 03:27:42;;;;;;;5.90;4.50;;;;;;;18.60;41.89;102241.91;5009306;28;20367;-68
2023/11/18 03:30:08;;;;;;;6.95;4.20;;;;;;;18.58;42.16;102236.72;5008991;28;20040;-68
2023/11/18 03:32:38;;;;;;;5.95;4.47;;;;;;;18.58;42.02;102238.47;5010190;28;20038;-68
2023/11/18 03:35:08;;;;;;;6.25;4.43;;;;;;;18.58;41.82;102231.44;5009477;28;20556;-67
2023/11/18 03:37:34;;;;;;;6.65;4.45;;;;;;;18.58;42.00;102231.44;5009455;28;21366;-67
2023/11/18 03:40:00;;;;;;;6.43;4.50;;;;;;;18.58;42.01;102234.06;5009371;28;20056;-67
2023/11/18 03:42:25;;;;;;;6.78;4.30;;;;;;;18.57;41.84;102227.09;5010043;28;20386;-67
2023/11/18 03:44:50;;;;;;;5.80;4.07;;;;;;;18.57;42.12;102213.03;5009637;28;20017;-66
2023/11/18 03:47:16;;;;;;;9.13;3.90;;;;;;;18.58;42.00;102214.72;5010019;28;20026;-67
2023/11/18 03:49:41;;;;;;;7.25;4.03;;;;;;;18.55;41.97;102202.56;5008767;28;20755;-68
2023/11/18 03:52:07;;;;;;;5.78;3.95;;;;;;;18.56;42.39;102196.34;5009355;28;20033;-66
2023/11/18 03:54:32;;;;;;;5.32;3.90;;;;;;;18.57;42.28;102189.28;5009286;28;20176;-68
2023/11/18 03:56:57;;;;;;;6.65;4.18;;;;;;;18.56;42.01;102201.63;5009088;28;20036;-66
2023/11/18 03:59:23;;;;;;;6.80;3.93;;;;;;;18.56;42.00;102196.34;5009567;28;20459;-68
2023/11/18 04:01:50;;;;;;;5.97;4.07;;;;;;;18.56;42.29;102183.13;5009496;28;20259;-67
2023/11/18 04:04:16;;;;;;;5.68;4.03;;;;;;;18.56;42.17;102182.28;5009552;28;20122;-66
2023/11/18 04:06:42;;;;;;;5.53;3.50;;;;;;;18.55;41.95;102178.81;5015674;28;20025;-67
2023/11/18 04:09:09;;;;;;;6.15;3.60;;;;;;;18.55;42.01;102173.53;5017784;28;20068;-67
2023/11/18 04:11:34;;;;;;;5.55;3.75;;;;;;;18.54;42.12;102165.72;5017497;28;20111;-68
2023/11/18 04:14:00;;;;;;;7.55;3.40;;;;;;;18.54;41.83;102168.34;5010297;28;20092;-66
2023/11/18 04:16:25;;;;;;;6.05;3.85;;;;;;;18.54;42.08;102171.00;5011211;28;20518;-68
2023/11/18 04:18:50;;;;;;;5.13;3.90;;;;;;;18.53;42.24;102167.47;5010552;28;20030;-68
2023/11/18 04:21:16;;;;;;;6.40;4.00;;;;;;;18.53;42.18;102166.63;5010762;28;20267;-67
2023/11/18 04:23:42;;;;;;;5.82;3.63;;;;;;;18.52;42.20;102170.22;5009605;28;20026;-68
2023/11/18 04:26:08;;;;;;;5.82;4.10;;;;;;;18.50;42.28;102165.06;5010513;28;20053;-67
2023/11/18 04:28:35;;;;;;;5.72;3.63;;;;;;;18.51;42.07;102165.91;5009967;28;20144;-66
2023/11/18 04:31:00;;;;;;;5.82;4.05;;;;;;;18.49;42.01;102153.63;5011295;28;20018;-67
2023/11/18 04:33:26;;;;;;;5.82;3.72;;;;;;;18.49;42.20;102163.34;5011329;28;20036;-66
2023/11/18 04:35:52;;;;;;;6.40;3.80;;;;;;;18.50;42.08;102159.78;5010570;28;20034;-68
2023/11/18 04:38:18;;;;;;;5.75;3.65;;;;;;;18.48;42.26;102148.44;5011545;28;20052;-69
2023/11/18 04:40:45;;;;;;;6.28;3.72;;;;;;;18.48;42.18;102154.59;5009664;28;20057;-67
2023/11/18 04:43:11;;;;;;;5.97;3.53;;;;;;;18.48;42.05;102148.44;5009823;28;20084;-69
2023/11/18 04:45:37;;;;;;;5.47;3.50;;;;;;;18.46;42.31;102130.06;5009900;28;20022;-67
2023/11/18 04:48:04;;;;;;;5.80;3.30;;;;;;;18.46;42.25;102134.50;5009806;28;20033;-68
2023/11/18 04:50:30;;;;;;;6.07;3.80;;;;;;;18.48;42.46;102136.13;5009663;28;20505;-69
2023/11/18 04:52:55;;;;;;;5.95;3.60;;;;;;;18.47;42.02;102129.13;5009316;28;20069;-68
2023/11/18 04:55:21;;;;;;;6.65;4.03;;;;;;;18.47;42.17;102123.00;5008400;28;20030;-68
2023/11/18 04:57:46;;;;;;;6.13;3.83;;;;;;;18.45;42.21;102128.38;5009040;28;20072;-68
2023/11/18 05:00:16;;;;;;;6.00;3.80;;;;;;;18.45;42.21;102122.25;5008459;28;20022;-68
2023/11/18 05:02:42;;;;;;;5.68;3.60;;;;;;;18.46;42.31;102121.31;5008496;28;20030;-67
2023/11/18 05:05:08;;;;;;;8.40;3.65;;;;;;;18.46;42.22;102124.78;5007939;28;20522;-68
2023/11/18 05:07:34;;;;;;;5.75;3.85;;;;;;;18.44;42.33;102112.66;5008262;28;20113;-67
2023/11/18 05:09:59;;;;;;;6.80;3.97;;;;;;;18.43;42.38;102109.13;5007988;28;20033;-69
2023/11/18 05:12:25;;;;;;;5.40;3.30;;;;;;;18.44;42.26;102104.72;5007889;28;20377;-67
2023/11/18 05:14:51;;;;;;;7.25;3.65;;;;;;;18.43;42.11;102103.84;5008498;28;20092;-68
2023/11/18 05:17:16;;;;;;;7.43;3.58;;;;;;;18.41;42.05;102092.56;5008239;28;20037;-69
2023/11/18 05:19:43;;;;;;;8.45;3.47;;;;;;;18.41;42.18;102089.91;5007531;28;20032;-68
2023/11/18 05:22:08;;;;;;;6.28;3.30;;;;;;;18.41;42.18;102094.34;5007482;28;20474;-68
2023/11/18 05:24:33;;;;;;;6.53;3.95;;;;;;;18.40;42.25;102082.94;5006649;28;20026;-68
2023/11/18 05:27:01;;;;;;;6.25;3.40;;;;;;;18.40;42.42;102082.94;5008088;28;20100;-67
2023/11/18 05:29:27;;;;;;;5.78;3.65;;;;;;;18.42;42.18;102086.34;5007220;28;20030;-68
2023/11/18 05:31:54;;;;;;;6.80;3.20;;;;;;;18.40;42.37;102082.94;5007863;28;20210;-68
2023/11/18 05:34:20;;;;;;;5.20;3.20;;;;;;;18.41;42.34;102083.81;5007758;28;20021;-68
2023/11/18 05:36:46;;;;;;;5.78;3.20;;;;;;;18.41;42.34;102078.53;5008357;28;20117;-68
2023/11/18 05:39:12;;;;;;;5.30;2.90;;;;;;;18.40;42.27;102075.00;5007450;28;20049;-69
2023/11/18 05:41:39;;;;;;;5.88;3.78;;;;;;;18.41;42.40;102083.81;5008046;28;20061;-69
2023/11/18 05:44:05;;;;;;;6.43;3.40;;;;;;;18.39;42.29;102083.03;5007589;28;20112;-67
2023/11/18 05:46:32;;;;;;;5.30;2.90;;;;;;;18.39;42.37;102073.34;5007961;28;20109;-68
2023/11/18 05:49:02;;;;;;;5.10;2.83;;;;;;;18.37;42.26;102064.66;5007192;28;20458;-69
2023/11/18 05:51:29;;;;;;;5.68;3.20;;;;;;;18.40;42.23;102068.91;5008091;28;20451;-69
2023/11/18 05:53:55;;;;;;;5.20;3.08;;;;;;;18.39;42.24;102067.19;5007255;28;20030;-69
2023/11/18 05:56:22;;;;;;;5.82;2.88;;;;;;;18.39;42.62;102060.13;5007209;28;20120;-68
2023/11/18 05:58:47;;;;;;;6.20;2.97;;;;;;;18.42;42.65;102061.72;5007517;28;20113;-68
2023/11/18 06:01:14;;;;;;;5.45;2.80;;;;;;;18.45;42.63;102061.53;5007092;28;20164;-68
2023/11/18 06:03:39;;;;;;;6.53;2.97;;;;;;;18.46;42.93;102055.31;5007258;28;20033;-69
2023/11/18 06:06:09;;;;;;;4.65;2.25;;;;;;;18.48;42.87;102056.94;5006455;28;20108;-69
2023/11/18 06:08:42;;;;;;;4.85;2.60;;;;;;;18.48;43.26;102038.44;5007849;28;20048;-68
2023/11/18 06:11:15;;;;;;;6.05;2.75;;;;;;;18.48;43.37;102025.25;5007144;28;20030;-69
2023/11/18 06:13:46;;;;;;;5.05;2.50;;;;;;;18.48;43.38;102014.69;5007398;28;20034;-67
2023/11/18 06:16:20;;;;;;;4.38;2.42;;;;;;;18.53;43.72;102027.56;5007248;28;20029;-69
2023/11/18 06:18:46;;;;;;;4.85;2.53;;;;;;;18.55;43.44;102040.66;5007019;28;20037;-67
2023/11/18 06:21:18;;;;;;;4.60;2.38;;;;;;;18.57;43.48;102050.19;5007232;28;20113;-68
2023/11/18 06:23:45;;;;;;;4.00;1.90;;;;;;;18.60;43.36;102052.63;5007435;28;20096;-69
2023/11/18 06:26:11;;;;;;;4.05;2.08;;;;;;;18.64;43.31;102054.16;5005908;28;20029;-68
2023/11/18 06:28:41;;;;;;;4.88;2.25;;;;;;;18.67;43.36;102046.03;5006754;28;20080;-69
2023/11/18 06:31:08;;;;;;;4.22;2.10;;;;;;;18.71;43.26;102049.31;5006191;28;20061;-69
2023/11/18 06:33:39;;;;;;;4.45;2.30;;;;;;;18.74;43.30;102042.97;5006843;28;20052;-68
2023/11/18 06:36:05;;;;;;;3.53;1.88;;;;;;;18.75;43.38;102042.88;5006586;28;20034;-68
2023/11/18 06:38:31;;;;;;;3.75;1.90;;;;;;;18.78;43.30;102044.47;5007855;28;20033;-69
2023/11/18 06:40:58;;;;;;;4.18;2.00;;;;;;;18.80;43.25;102045.22;5006599;28;20083;-67
2023/11/18 06:43:24;;;;;;;4.72;1.92;;;;;;;18.79;43.40;102041.72;5006457;28;20032;-66
2023/11/18 06:45:50;;;;;;;3.85;1.80;;;;;;;18.82;43.08;102040.69;5006975;28;20038;-66
2023/11/18 06:48:19;;;;;;;4.03;2.20;;;;;;;18.81;43.32;102031.91;5006541;28;20034;-67
2023/11/18 06:50:45;;;;;;;4.20;2.00;;;;;;;18.82;43.35;102027.50;5006838;28;20041;-67
2023/11/18 06:53:11;;;;;;;5.03;2.00;;;;;;;18.82;43.19;102036.25;5007076;28;20451;-67
2023/11/18 06:55:37;;;;;;;4.47;2.00;;;;;;;18.84;43.27;102036.19;5006420;28;20030;-67
2023/11/18 06:58:02;;;;;;;5.18;1.88;;;;;;;18.85;43.30;102035.25;5006758;28;20056;-68
2023/11/18 07:00:29;;;;;;;4.88;1.98;;;;;;;18.86;43.45;102026.34;5006565;28;20033;-67
2023/11/18 07:02:54;;;;;;;3.85;1.80;;;;;;;18.88;43.24;102034.19;5006618;28;20521;-68
2023/11/18 07:05:20;;;;;;;5.47;1.90;;;;;;;18.89;43.50;102027.97;5006410;28;20105;-68
2023/11/18 07:07:46;;;;;;;3.92;1.75;;;;;;;18.91;43.36;102028.69;5006715;28;20026;-68
2023/11/18 07:10:13;;;;;;;5.53;1.95;;;;;;;18.90;43.33;102014.66;5006739;28;20044;-68
2023/11/18 07:12:38;;;;;;;3.67;1.88;;;;;;;18.91;43.38;102016.31;5006069;28;20025;-68
2023/11/18 07:15:04;;;;;;;4.28;2.03;;;;;;;18.93;43.22;102024.16;5006771;28;20075;-67
2023/11/18 07:17:30;;;;;;;4.32;2.10;;;;;;;18.94;43.28;102023.22;5006418;28;20026;-67
2023/11/18 07:19:55;;;;;;;4.25;1.90;;;;;;;18.92;43.14;102022.47;5006223;28;20435;-67
2023/11/18 07:22:21;;;;;;;4.60;1.90;;;;;;;18.93;42.94;102027.66;5005957;28;20018;-67
2023/11/18 07:24:46;;;;;;;4.45;2.05;;;;;;;18.92;42.86;102014.56;5006288;28;20172;-68
2023/11/18 07:27:11;;;;;;;7.47;2.08;;;;;;;18.93;43.29;102014.44;5006583;28;20458;-69
2023/11/18 07:29:37;;;;;;;5.70;1.67;;;;;;;18.94;43.27;102018.75;5005677;28;20100;-71
2023/11/18 07:32:05;;;;;;;4.85;2.20;;;;;;;18.95;43.46;102020.47;5005812;28;20021;-68
2023/11/18 07:34:32;;;;;;;4.90;1.90;;;;;;;18.95;43.57;102020.47;5006224;28;20033;-68
2023/11/18 07:36:58;;;;;;;4.00;1.73;;;;;;;18.95;43.82;102023.13;5006148;28;20034;-69
2023/11/18 07:39:29;;;;;;;4.93;2.00;;;;;;;18.97;43.80;102033.56;5005796;28;20068;-69
2023/11/18 07:41:59;;;;;;;4.60;2.00;;;;;;;18.98;43.80;102030.84;5005796;28;20351;-70
2023/11/18 07:44:24;;;;;;;3.60;1.65;;;;;;;19.01;44.00;102021.88;5006277;28;20053;-68
2023/11/18 07:46:50;;;;;;;3.28;1.60;;;;;;;19.01;43.86;102027.16;5006195;28;20037;-68
2023/11/18 07:49:16;;;;;;;4.57;1.70;;;;;;;18.99;44.19;102026.38;5009186;28;20474;-68
2023/11/18 07:51:42;;;;;;;5.00;1.83;;;;;;;19.00;44.14;102036.03;5009595;28;20092;-69
2023/11/18 07:54:07;;;;;;;5.00;2.00;;;;;;;19.00;44.20;102039.50;5009873;28;20018;-68
2023/11/18 07:56:32;;;;;;;3.70;1.52;;;;;;;19.02;44.13;102036.75;5008526;28;20022;-68
2023/11/18 07:58:58;;;;;;;4.30;1.95;;;;;;;19.00;44.41;102025.44;5008213;28;20034;-69
2023/11/18 08:01:23;;;;;;;6.50;1.75;;;;;;;19.01;44.52;102035.91;5008976;28;20034;-67
2023/11/18 08:03:50;;;;;;;5.15;1.75;;;;;;;19.02;44.23;102026.19;5009614;28;20430;-67
2023/11/18 08:06:17;;;;;;;5.18;1.70;;;;;;;19.03;44.20;102023.44;5010060;28;20133;-69
2023/11/18 08:08:42;;;;;;;4.50;1.60;;;;;;;19.07;44.13;102036.44;5009309;28;20049;-68
2023/11/18 08:11:12;;;;;;;4.13;1.77;;;;;;;19.04;44.41;102040.13;5009904;28;20026;-69
2023/11/18 08:13:37;;;;;;;3.28;1.70;;;;;;;19.05;44.37;102033.91;5009597;28;20026;-68
2023/11/18 08:16:03;;;;;;;4.53;1.88;;;;;;;19.05;44.56;102035.72;5010333;28;20034;-68
2023/11/18 08:18:31;;;;;;;4.97;1.70;;;;;;;19.07;44.26;102029.38;5011861;28;20018;-71
2023/11/18 08:20:57;;;;;;;3.67;1.63;;;;;;;19.07;44.30;102018.78;5010788;28;20096;-69
2023/11/18 08:23:22;;;;;;;4.43;1.80;;;;;;;19.07;44.36;102018.78;5010468;28;20034;-71
2023/11/18 08:25:47;;;;;;;4.60;1.60;;;;;;;19.09;44.54;102013.41;5009287;28;20048;-68
2023/11/18 08:28:13;;;;;;;3.53;1.55;;;;;;;19.07;44.58;102016.16;5009177;28;20581;-69
2023/11/18 08:30:39;;;;;;;3.88;1.65;;;;;;;19.07;44.98;102023.25;5008727;28;20140;-67
2023/11/18 08:33:08;;;;;;;4.90;1.60;;;;;;;19.08;44.82;102022.31;5009391;28;20038;-69
2023/11/18 08:35:34;;;;;;;4.78;1.70;;;;;;;19.10;44.77;102009.81;5008994;28;20091;-69
2023/11/18 08:38:01;;;;;;;3.67;1.67;;;;;;;19.09;44.73;102002.84;5009516;28;20038;-69
2023/11/18 08:40:26;;;;;;;5.18;1.80;;;;;;;19.10;44.83;102008.03;5008165;28;20033;-69
2023/11/18 08:42:55;;;;;;;4.57;1.65;;;;;;;19.10;44.90;102001.91;5008491;28;20037;-68
2023/11/18 08:45:22;;;;;;;4.68;1.90;;;;;;;19.13;44.79;101996.41;5009078;28;20038;-69
2023/11/18 08:47:48;;;;;;;3.42;1.45;;;;;;;19.13;44.74;101991.97;5008701;28;20101;-69
2023/11/18 08:50:17;;;;;;;5.03;1.75;;;;;;;19.11;44.83;101993.88;5008790;28;20108;-64
2023/11/18 08:52:47;;;;;;;5.32;1.65;;;;;;;19.12;45.06;101992.94;5009140;28;20033;-71
2023/11/18 08:55:22;;;;;;;4.45;1.50;;;;;;;19.11;44.85;101985.94;5009179;28;20037;-70
2023/11/18 08:58:00;;;;;;;4.05;1.60;;;;;;;19.13;44.67;101984.03;5008762;28;20033;-68
2023/11/18 09:00:47;;;;;;;4.50;1.70;;;;;;;19.14;44.92;101972.53;5008421;28;20046;-68
2023/11/18 09:03:17;;;;;;;4.03;1.70;;;;;;;19.14;44.87;101972.53;5008594;28;20036;-70
2023/11/18 09:05:58;;;;;;;3.90;1.60;;;;;;;19.14;44.85;101964.59;5008082;28;20057;-69
2023/11/18 09:08:34;;;;;;;4.00;1.70;;;;;;;19.13;45.23;101972.63;5008298;28;20500;-68
2023/11/18 09:11:11;;;;;;;5.05;1.58;;;;;;;19.14;44.90;101966.41;5007522;28;20030;-68
2023/11/18 09:13:38;;;;;;;5.30;1.58;;;;;;;19.15;44.91;101970.72;5006923;28;20029;-69
2023/11/18 09:16:09;;;;;;;4.03;1.52;;;;;;;19.13;44.99;101954.13;5006438;28;20100;-69
2023/11/18 09:18:39;;;;;;;3.65;1.38;;;;;;;19.13;44.88;101949.69;5007960;28;20057;-69
2023/11/18 09:21:06;;;;;;;5.75;1.50;;;;;;;19.13;44.87;101936.47;5007219;28;20041;-67
2023/11/18 09:23:34;;;;;;;5.75;1.67;;;;;;;19.14;45.11;101934.69;5006622;28;20042;-69
2023/11/18 09:26:00;;;;;;;2.83;1.20;;;;;;;19.15;44.89;101931.94;5006287;28;20437;-68
2023/11/18 09:28:29;;;;;;;5.72;1.60;;;;;;;19.16;45.05;101932.78;5006809;28;20061;-69
2023/11/18 09:30:57;;;;;;;4.63;1.63;;;;;;;19.17;45.02;101930.03;5005669;28;20060;-68
2023/11/18 09:33:33;;;;;;;4.35;1.70;;;;;;;19.15;45.18;101920.50;5006585;28;20025;-70
2023/11/18 09:36:00;;;;;;;4.35;1.60;;;;;;;19.16;44.98;101907.19;5006187;28;20045;-69
2023/11/18 09:38:29;;;;;;;3.55;1.45;;;;;;;19.16;45.27;101909.00;5006475;28;20030;-69
2023/11/18 09:40:55;;;;;;;4.70;1.60;;;;;;;19.15;45.24;101896.72;5007616;28;20085;-68
2023/11/18 09:43:22;;;;;;;3.70;1.42;;;;;;;19.19;44.99;101895.59;5006602;28;20049;-67
2023/11/18 09:45:49;;;;;;;4.78;1.42;;;;;;;19.17;44.96;101887.75;5007391;28;20108;-69
2023/11/18 09:48:20;;;;;;;5.13;1.65;;;;;;;19.16;45.20;101895.78;5006792;28;20038;-68
2023/11/18 09:50:47;;;;;;;2.63;1.10;;;;;;;19.19;44.97;101898.22;5007475;28;20365;-69
2023/11/18 09:53:14;;;;;;;5.53;1.40;;;;;;;19.17;45.11;101886.94;5007212;28;20083;-69
2023/11/18 09:56:03;;;;;;;4.28;1.50;;;;;;;19.20;44.70;101886.69;5006476;28;20052;-69
2023/11/18 09:58:41;;;;;;;6.20;1.63;;;;;;;19.19;44.70;101885.84;5006197;28;20034;-69
2023/11/18 10:01:07;;;;;;;4.68;1.40;;;;;;;19.20;44.70;101886.69;5006351;28;20449;-70
2023/11/18 10:03:35;;;;;;;3.63;1.23;;;;;;;19.19;44.88;101879.72;5006509;28;20390;-68
2023/11/18 10:06:04;;;;;;;3.33;1.40;;;;;;;19.18;44.85;101884.19;5006364;28;20425;-67
2023/11/18 10:08:31;;;;;;;3.00;1.30;;;;;;;19.18;44.85;101876.25;5006419;28;20040;-68
2023/11/18 10:11:04;;;;;;;4.47;1.52;;;;;;;19.18;44.87;101868.31;5005781;28;20087;-69
2023/11/18 10:13:34;;;;;;;3.88;1.40;;;;;;;19.17;44.76;101856.06;5004873;28;20047;-70
2023/11/18 10:16:01;;;;;;;5.47;1.40;;;;;;;19.20;44.90;101855.84;5006262;28;20073;-67
2023/11/18 10:18:28;;;;;;;4.10;1.50;;;;;;;19.17;45.26;101856.06;5006472;28;20033;-69
2023/11/18 10:20:54;;;;;;;4.32;1.30;;;;;;;19.13;45.39;101853.72;5005903;28;20042;-69
2023/11/18 10:23:21;;;;;;;4.97;1.38;;;;;;;19.12;45.41;101857.31;5005991;28;20033;-69
2023/11/18 10:25:48;;;;;;;7.05;1.55;;;;;;;19.13;45.64;101843.16;5006001;28;20063;-68
2023/11/18 10:28:29;;;;;;;3.58;1.48;;;;;;;19.10;45.44;101844.22;5006191;28;20513;-68
2023/11/18 10:31:05;;;;;;;3.80;1.33;;;;;;;19.14;45.55;101832.47;5004999;28;20045;-70
2023/11/18 10:33:43;;;;;;;5.47;1.40;;;;;;;19.14;45.77;101824.56;5006477;28;20470;-68
2023/11/18 10:36:23;;;;;;;3.40;1.20;;;;;;;19.13;45.51;101828.13;5006069;28;20034;-67
2023/11/18 10:38:49;;;;;;;5.25;1.55;;;;;;;19.12;45.63;101820.31;5006290;28;20172;-69
2023/11/18 10:41:16;;;;;;;2.85;1.13;;;;;;;19.12;45.66;101829.13;5005851;28;20029;-69
2023/11/18 10:43:44;;;;;;;2.92;1.10;;;;;;;19.10;45.70;101820.44;5005999;28;20038;-69
2023/11/18 10:46:15;;;;;;;4.38;0.95;;;;;;;19.11;45.95;101821.28;5006024;28;20029;-72
2023/11/18 10:48:47;;;;;;;3.45;1.23;;;;;;;19.11;45.99;101823.94;5005564;28;20117;-70
2023/11/18 10:51:15;;;;;;;3.50;1.50;;;;;;;19.12;45.82;101810.63;5004707;28;20573;-71
2023/11/18 10:53:52;;;;;;;3.60;1.10;;;;;;;19.10;45.91;101806.38;5002285;28;20075;-70
2023/11/18 10:56:32;;;;;;;4.18;1.10;;;;;;;19.13;45.69;101801.72;5002089;28;20534;-68
2023/11/18 10:58:58;;;;;;;5.45;1.30;;;;;;;19.14;45.65;101808.69;5002222;28;20022;-67
2023/11/18 11:01:31;;;;;;;3.88;1.30;;;;;;;19.10;45.48;101807.22;5001703;28;20025;-69
2023/11/18 11:03:57;;;;;;;2.60;1.20;;;;;;;19.09;45.77;101805.53;5001789;28;20137;-67
2023/11/18 11:06:30;;;;;;;3.85;1.17;;;;;;;19.07;46.02;101810.06;5004479;28;20263;-68
2023/11/18 11:08:58;;;;;;;4.15;1.30;;;;;;;19.07;45.84;101796.03;5001482;28;20335;-68
2023/11/18 11:11:26;;;;;;;3.28;1.25;;;;;;;19.07;46.01;101781.00;5001622;28;20111;-69
2023/11/18 11:13:58;;;;;;;3.83;1.17;;;;;;;19.04;46.04;101773.28;5001205;28;20033;-69
2023/11/18 11:16:33;;;;;;;3.40;1.33;;;;;;;19.05;46.17;101780.28;5001669;28;20029;-65
2023/11/18 11:19:08;;;;;;;5.70;1.38;;;;;;;19.04;46.07;101768.00;5002802;28;20111;-67
2023/11/18 11:21:42;;;;;;;2.60;1.10;;;;;;;19.07;46.05;101765.16;5004800;28;20041;-69
2023/11/18 11:24:19;;;;;;;;;;;;;;;19.25;45.58;101762.16;5004178;28;20164;-67
2023/11/18 11:26:59;;;;;;;3.03;1.20;;;;;;;19.29;45.46;101745.13;5005225;28;20369;-68